sensor_id;sensor_type;location;lat;lon;timestamp;P1;durP1;ratioP1;P2;durP2;ratioP2
65393;SDS011;52002;49.760;6.512;2024-03-23T00:53:23;11.00;;;2.90;;
65393;SDS011;52002;49.760;6.512;2024-03-23T00:55:49;7.40;;;2.70;;
65393;SDS011;52002;49.760;6.512;2024-03-23T00:58:14;6.10;;;2.90;;
65393;SDS011;52002;49.760;6.512;2024-03-23T01:00:39;6.50;;;2.90;;
65393;SDS011;52002;49.760;6.512;2024-03-23T01:03:05;6.90;;;2.70;;
65393;SDS011;52002;49.760;6.512;2024-03-23T01:05:30;7.40;;;2.70;;
65393;SDS011;52002;49.760;6.512;2024-03-23T01:07:55;4.40;;;2.90;;
65393;SDS011;52002;49.760;6.512;2024-03-23T01:10:21;5.00;;;3.00;;
65393;SDS011;52002;49.760;6.512;2024-03-23T01:12:47;4.30;;;3.00;;
65393;SDS011;52002;49.760;6.512;2024-03-23T01:15:12;4.00;;;2.70;;
65393;SDS011;52002;49.760;6.512;2024-03-23T01:17:37;5.00;;;2.60;;
65393;SDS011;52002;49.760;6.512;2024-03-23T01:20:03;4.10;;;3.10;;
65393;SDS011;52002;49.760;6.512;2024-03-23T01:22:29;9.20;;;3.20;;
65393;SDS011;52002;49.760;6.512;2024-03-23T01:24:54;7.60;;;3.30;;
65393;SDS011;52002;49.760;6.512;2024-03-23T01:27:20;7.40;;;4.20;;
65393;SDS011;52002;49.760;6.512;2024-03-23T01:29:45;6.30;;;3.20;;
65393;SDS011;52002;49.760;6.512;2024-03-23T01:32:11;8.00;;;4.80;;
65393;SDS011;52002;49.760;6.512;2024-03-23T01:34:36;6.30;;;3.70;;
65393;SDS011;52002;49.760;6.512;2024-03-23T01:37:01;8.20;;;5.20;;
65393;SDS011;52002;49.760;6.512;2024-03-23T01:39:27;11.30;;;5.70;;
65393;SDS011;52002;49.760;6.512;2024-03-23T01:41:52;9.20;;;6.70;;
65393;SDS011;52002;49.760;6.512;2024-03-23T01:44:18;8.40;;;5.40;;
65393;SDS011;52002;49.760;6.512;2024-03-23T01:46:43;12.10;;;5.80;;
65393;SDS011;52002;49.760;6.512;2024-03-23T01:49:09;10.20;;;5.50;;
65393;SDS011;52002;49.760;6.512;2024-03-23T01:51:35;10.40;;;5.90;;
65393;SDS011;52002;49.760;6.512;2024-03-23T01:54:01;11.30;;;6.10;;
65393;SDS011;52002;49.760;6.512;2024-03-23T01:56:29;10.70;;;5.70;;
65393;SDS011;52002;49.760;6.512;2024-03-23T01:58:58;10.60;;;6.10;;
65393;SDS011;52002;49.760;6.512;2024-03-23T02:01:23;11.80;;;5.80;;
65393;SDS011;52002;49.760;6.512;2024-03-23T02:03:48;9.90;;;5.60;;
65393;SDS011;52002;49.760;6.512;2024-03-23T02:06:14;8.40;;;5.70;;
65393;SDS011;52002;49.760;6.512;2024-03-23T02:08:39;5.90;;;3.70;;
65393;SDS011;52002;49.760;6.512;2024-03-23T02:11:05;3.70;;;2.50;;
65393;SDS011;52002;49.760;6.512;2024-03-23T02:13:31;3.40;;;1.50;;
65393;SDS011;52002;49.760;6.512;2024-03-23T02:15:57;1.60;;;1.30;;
65393;SDS011;52002;49.760;6.512;2024-03-23T02:18:22;2.40;;;1.40;;
65393;SDS011;52002;49.760;6.512;2024-03-23T02:20:47;1.80;;;1.40;;
65393;SDS011;52002;49.760;6.512;2024-03-23T02:23:16;2.40;;;1.30;;
65393;SDS011;52002;49.760;6.512;2024-03-23T02:25:43;2.20;;;1.20;;
65393;SDS011;52002;49.760;6.512;2024-03-23T02:28:09;1.20;;;1.10;;
65393;SDS011;52002;49.760;6.512;2024-03-23T02:30:35;0.90;;;0.90;;
65393;SDS011;52002;49.760;6.512;2024-03-23T02:33:01;1.00;;;0.90;;
65393;SDS011;52002;49.760;6.512;2024-03-23T02:35:27;1.10;;;1.00;;
65393;SDS011;52002;49.760;6.512;2024-03-23T02:37:52;1.50;;;0.90;;
65393;SDS011;52002;49.760;6.512;2024-03-23T02:40:19;0.70;;;0.70;;
65393;SDS011;52002;49.760;6.512;2024-03-23T02:42:45;0.70;;;0.70;;
65393;SDS011;52002;49.760;6.512;2024-03-23T02:45:11;2.10;;;0.80;;
65393;SDS011;52002;49.760;6.512;2024-03-23T02:47:36;0.70;;;0.70;;
65393;SDS011;52002;49.760;6.512;2024-03-23T02:50:01;1.50;;;0.80;;
65393;SDS011;52002;49.760;6.512;2024-03-23T02:52:27;0.80;;;0.80;;
65393;SDS011;52002;49.760;6.512;2024-03-23T02:54:52;0.50;;;0.50;;
65393;SDS011;52002;49.760;6.512;2024-03-23T02:57:18;0.50;;;0.50;;
65393;SDS011;52002;49.760;6.512;2024-03-23T02:59:43;0.40;;;0.40;;
65393;SDS011;52002;49.760;6.512;2024-03-23T03:02:09;0.50;;;0.30;;
65393;SDS011;52002;49.760;6.512;2024-03-23T03:04:34;0.30;;;0.30;;
65393;SDS011;52002;49.760;6.512;2024-03-23T03:07:00;0.30;;;0.30;;
65393;SDS011;52002;49.760;6.512;2024-03-23T03:09:25;0.30;;;0.30;;
65393;SDS011;52002;49.760;6.512;2024-03-23T03:11:51;0.70;;;0.30;;
65393;SDS011;52002;49.760;6.512;2024-03-23T03:14:16;0.50;;;0.50;;
65393;SDS011;52002;49.760;6.512;2024-03-23T03:16:42;0.30;;;0.30;;
65393;SDS011;52002;49.760;6.512;2024-03-23T03:19:08;0.60;;;0.40;;
65393;SDS011;52002;49.760;6.512;2024-03-23T03:21:34;2.40;;;0.50;;
65393;SDS011;52002;49.760;6.512;2024-03-23T03:23:59;3.60;;;0.30;;
65393;SDS011;52002;49.760;6.512;2024-03-23T03:26:25;0.50;;;0.50;;
65393;SDS011;52002;49.760;6.512;2024-03-23T03:28:50;0.30;;;0.30;;
65393;SDS011;52002;49.760;6.512;2024-03-23T03:31:16;0.30;;;0.20;;
65393;SDS011;52002;49.760;6.512;2024-03-23T03:33:42;1.10;;;0.20;;
65393;SDS011;52002;49.760;6.512;2024-03-23T03:36:08;1.00;;;0.30;;
65393;SDS011;52002;49.760;6.512;2024-03-23T03:38:33;1.00;;;0.40;;
65393;SDS011;52002;49.760;6.512;2024-03-23T03:41:02;0.30;;;0.30;;
65393;SDS011;52002;49.760;6.512;2024-03-23T03:43:28;0.30;;;0.30;;
65393;SDS011;52002;49.760;6.512;2024-03-23T03:45:54;0.50;;;0.40;;
65393;SDS011;52002;49.760;6.512;2024-03-23T03:48:22;0.10;;;0.10;;
65393;SDS011;52002;49.760;6.512;2024-03-23T03:50:47;0.50;;;0.40;;
65393;SDS011;52002;49.760;6.512;2024-03-23T03:53:13;0.30;;;0.30;;
65393;SDS011;52002;49.760;6.512;2024-03-23T03:55:38;0.40;;;0.30;;
65393;SDS011;52002;49.760;6.512;2024-03-23T03:58:04;0.40;;;0.30;;
65393;SDS011;52002;49.760;6.512;2024-03-23T04:00:32;0.60;;;0.40;;
65393;SDS011;52002;49.760;6.512;2024-03-23T04:02:57;0.20;;;0.20;;
65393;SDS011;52002;49.760;6.512;2024-03-23T04:05:23;0.60;;;0.10;;
65393;SDS011;52002;49.760;6.512;2024-03-23T04:07:49;0.30;;;0.20;;
65393;SDS011;52002;49.760;6.512;2024-03-23T04:10:14;0.20;;;0.20;;
65393;SDS011;52002;49.760;6.512;2024-03-23T04:12:40;0.20;;;0.20;;
65393;SDS011;52002;49.760;6.512;2024-03-23T04:15:06;0.30;;;0.20;;
65393;SDS011;52002;49.760;6.512;2024-03-23T04:17:33;0.20;;;0.20;;
65393;SDS011;52002;49.760;6.512;2024-03-23T04:19:59;0.10;;;0.10;;
65393;SDS011;52002;49.760;6.512;2024-03-23T04:22:25;0.20;;;0.20;;
65393;SDS011;52002;49.760;6.512;2024-03-23T04:24:55;0.50;;;0.10;;
65393;SDS011;52002;49.760;6.512;2024-03-23T04:27:22;0.00;;;0.00;;
65393;SDS011;52002;49.760;6.512;2024-03-23T04:29:51;0.70;;;0.20;;
65393;SDS011;52002;49.760;6.512;2024-03-23T04:32:20;0.20;;;0.20;;
65393;SDS011;52002;49.760;6.512;2024-03-23T04:34:46;0.10;;;0.10;;
65393;SDS011;52002;49.760;6.512;2024-03-23T04:37:11;0.10;;;0.10;;
65393;SDS011;52002;49.760;6.512;2024-03-23T04:39:37;0.10;;;0.10;;
65393;SDS011;52002;49.760;6.512;2024-03-23T04:42:03;3.10;;;0.40;;
65393;SDS011;52002;49.760;6.512;2024-03-23T04:44:30;0.40;;;0.10;;
65393;SDS011;52002;49.760;6.512;2024-03-23T04:46:56;0.20;;;0.20;;
65393;SDS011;52002;49.760;6.512;2024-03-23T04:49:22;0.10;;;0.10;;
65393;SDS011;52002;49.760;6.512;2024-03-23T04:51:47;0.20;;;0.20;;
65393;SDS011;52002;49.760;6.512;2024-03-23T04:54:13;0.30;;;0.30;;
65393;SDS011;52002;49.760;6.512;2024-03-23T04:56:38;0.30;;;0.30;;
65393;SDS011;52002;49.760;6.512;2024-03-23T04:59:04;0.20;;;0.20;;
65393;SDS011;52002;49.760;6.512;2024-03-23T05:01:30;0.20;;;0.20;;
65393;SDS011;52002;49.760;6.512;2024-03-23T05:03:57;2.60;;;0.30;;
65393;SDS011;52002;49.760;6.512;2024-03-23T05:06:23;0.20;;;0.20;;
65393;SDS011;52002;49.760;6.512;2024-03-23T05:08:48;0.80;;;0.30;;
65393;SDS011;52002;49.760;6.512;2024-03-23T05:11:14;0.30;;;0.20;;
65393;SDS011;52002;49.760;6.512;2024-03-23T05:13:40;1.30;;;0.40;;
65393;SDS011;52002;49.760;6.512;2024-03-23T05:16:06;1.30;;;0.30;;
65393;SDS011;52002;49.760;6.512;2024-03-23T05:18:33;0.50;;;0.30;;
65393;SDS011;52002;49.760;6.512;2024-03-23T05:20:59;0.80;;;0.30;;
65393;SDS011;52002;49.760;6.512;2024-03-23T05:23:25;5.10;;;0.80;;
65393;SDS011;52002;49.760;6.512;2024-03-23T05:25:51;2.30;;;0.60;;
65393;SDS011;52002;49.760;6.512;2024-03-23T05:28:17;2.60;;;0.60;;
65393;SDS011;52002;49.760;6.512;2024-03-23T05:30:43;2.80;;;0.60;;
65393;SDS011;52002;49.760;6.512;2024-03-23T05:33:09;2.70;;;1.30;;
65393;SDS011;52002;49.760;6.512;2024-03-23T05:35:34;3.20;;;0.70;;
65393;SDS011;52002;49.760;6.512;2024-03-23T05:37:59;2.80;;;0.70;;
65393;SDS011;52002;49.760;6.512;2024-03-23T05:40:28;8.60;;;1.60;;
65393;SDS011;52002;49.760;6.512;2024-03-23T05:42:54;5.30;;;1.20;;
65393;SDS011;52002;49.760;6.512;2024-03-23T05:45:21;3.00;;;0.90;;
65393;SDS011;52002;49.760;6.512;2024-03-23T05:47:47;6.10;;;1.50;;
65393;SDS011;52002;49.760;6.512;2024-03-23T05:50:13;10.90;;;1.60;;
65393;SDS011;52002;49.760;6.512;2024-03-23T05:52:39;5.90;;;1.40;;
65393;SDS011;52002;49.760;6.512;2024-03-23T05:55:05;6.60;;;1.40;;
65393;SDS011;52002;49.760;6.512;2024-03-23T05:57:31;6.70;;;1.30;;
65393;SDS011;52002;49.760;6.512;2024-03-23T05:59:57;4.30;;;1.70;;
65393;SDS011;52002;49.760;6.512;2024-03-23T06:02:22;6.00;;;1.90;;
65393;SDS011;52002;49.760;6.512;2024-03-23T06:04:48;4.20;;;1.50;;
65393;SDS011;52002;49.760;6.512;2024-03-23T06:07:14;4.70;;;1.60;;
65393;SDS011;52002;49.760;6.512;2024-03-23T06:09:43;2.50;;;1.60;;
65393;SDS011;52002;49.760;6.512;2024-03-23T06:12:08;5.80;;;1.50;;
65393;SDS011;52002;49.760;6.512;2024-03-23T06:14:34;3.60;;;1.60;;
65393;SDS011;52002;49.760;6.512;2024-03-23T06:17:00;5.30;;;1.70;;
65393;SDS011;52002;49.760;6.512;2024-03-23T06:19:26;5.30;;;1.60;;
65393;SDS011;52002;49.760;6.512;2024-03-23T06:21:53;6.40;;;2.00;;
65393;SDS011;52002;49.760;6.512;2024-03-23T06:24:19;5.70;;;1.60;;
65393;SDS011;52002;49.760;6.512;2024-03-23T06:26:46;8.00;;;1.90;;
65393;SDS011;52002;49.760;6.512;2024-03-23T06:29:12;7.60;;;2.10;;
65393;SDS011;52002;49.760;6.512;2024-03-23T06:31:37;5.90;;;2.00;;
65393;SDS011;52002;49.760;6.512;2024-03-23T06:34:03;8.70;;;2.20;;
65393;SDS011;52002;49.760;6.512;2024-03-23T06:36:28;8.70;;;1.90;;
65393;SDS011;52002;49.760;6.512;2024-03-23T06:38:55;8.10;;;2.10;;
65393;SDS011;52002;49.760;6.512;2024-03-23T06:41:21;5.80;;;2.10;;
65393;SDS011;52002;49.760;6.512;2024-03-23T06:43:46;10.80;;;2.00;;
65393;SDS011;52002;49.760;6.512;2024-03-23T06:46:11;8.70;;;3.00;;
65393;SDS011;52002;49.760;6.512;2024-03-23T06:48:37;7.30;;;2.00;;
65393;SDS011;52002;49.760;6.512;2024-03-23T06:51:02;7.10;;;2.10;;
65393;SDS011;52002;49.760;6.512;2024-03-23T06:53:28;8.00;;;1.90;;
65393;SDS011;52002;49.760;6.512;2024-03-23T06:55:54;8.60;;;1.90;;
65393;SDS011;52002;49.760;6.512;2024-03-23T06:58:21;5.50;;;2.20;;
65393;SDS011;52002;49.760;6.512;2024-03-23T07:00:47;8.30;;;2.60;;
65393;SDS011;52002;49.760;6.512;2024-03-23T07:03:13;8.00;;;2.90;;
65393;SDS011;52002;49.760;6.512;2024-03-23T07:05:39;6.30;;;2.10;;
65393;SDS011;52002;49.760;6.512;2024-03-23T07:08:04;4.70;;;2.00;;
65393;SDS011;52002;49.760;6.512;2024-03-23T07:10:30;10.60;;;2.80;;
65393;SDS011;52002;49.760;6.512;2024-03-23T07:12:55;7.00;;;2.30;;
65393;SDS011;52002;49.760;6.512;2024-03-23T07:15:21;6.90;;;2.40;;
65393;SDS011;52002;49.760;6.512;2024-03-23T07:17:47;8.90;;;3.30;;
65393;SDS011;52002;49.760;6.512;2024-03-23T07:20:13;9.00;;;2.90;;
65393;SDS011;52002;49.760;6.512;2024-03-23T07:22:38;5.90;;;2.50;;
65393;SDS011;52002;49.760;6.512;2024-03-23T07:25:04;7.60;;;2.40;;
65393;SDS011;52002;49.760;6.512;2024-03-23T07:27:31;10.30;;;3.20;;
65393;SDS011;52002;49.760;6.512;2024-03-23T07:29:57;11.30;;;3.10;;
65393;SDS011;52002;49.760;6.512;2024-03-23T07:32:22;9.90;;;3.40;;
65393;SDS011;52002;49.760;6.512;2024-03-23T07:34:48;7.50;;;2.40;;
65393;SDS011;52002;49.760;6.512;2024-03-23T07:37:13;8.80;;;3.00;;
65393;SDS011;52002;49.760;6.512;2024-03-23T07:39:39;12.80;;;3.20;;
65393;SDS011;52002;49.760;6.512;2024-03-23T07:42:05;8.60;;;3.30;;
65393;SDS011;52002;49.760;6.512;2024-03-23T07:44:31;11.50;;;3.60;;
65393;SDS011;52002;49.760;6.512;2024-03-23T07:46:56;12.00;;;4.40;;
65393;SDS011;52002;49.760;6.512;2024-03-23T07:49:22;9.50;;;3.40;;
65393;SDS011;52002;49.760;6.512;2024-03-23T07:51:47;9.10;;;3.40;;
65393;SDS011;52002;49.760;6.512;2024-03-23T07:54:13;10.00;;;3.40;;
65393;SDS011;52002;49.760;6.512;2024-03-23T07:56:38;12.00;;;3.80;;
65393;SDS011;52002;49.760;6.512;2024-03-23T07:59:03;10.70;;;3.40;;
65393;SDS011;52002;49.760;6.512;2024-03-23T08:01:29;12.40;;;3.60;;
65393;SDS011;52002;49.760;6.512;2024-03-23T08:03:55;9.90;;;3.80;;
65393;SDS011;52002;49.760;6.512;2024-03-23T08:06:20;9.60;;;3.90;;
65393;SDS011;52002;49.760;6.512;2024-03-23T08:08:50;11.10;;;4.40;;
65393;SDS011;52002;49.760;6.512;2024-03-23T08:11:27;9.00;;;3.70;;
65393;SDS011;52002;49.760;6.512;2024-03-23T08:13:54;12.60;;;3.90;;
65393;SDS011;52002;49.760;6.512;2024-03-23T08:16:20;11.90;;;4.30;;
65393;SDS011;52002;49.760;6.512;2024-03-23T08:18:46;11.20;;;4.30;;
65393;SDS011;52002;49.760;6.512;2024-03-23T08:21:11;12.30;;;4.90;;
65393;SDS011;52002;49.760;6.512;2024-03-23T08:23:37;12.50;;;4.00;;
65393;SDS011;52002;49.760;6.512;2024-03-23T08:26:04;9.60;;;3.90;;
65393;SDS011;52002;49.760;6.512;2024-03-23T08:28:34;10.50;;;4.10;;
65393;SDS011;52002;49.760;6.512;2024-03-23T08:31:00;10.70;;;3.90;;
65393;SDS011;52002;49.760;6.512;2024-03-23T08:33:30;12.30;;;3.90;;
65393;SDS011;52002;49.760;6.512;2024-03-23T08:35:57;9.50;;;3.50;;
65393;SDS011;52002;49.760;6.512;2024-03-23T08:38:24;10.10;;;3.70;;
65393;SDS011;52002;49.760;6.512;2024-03-23T08:40:56;15.10;;;3.90;;
65393;SDS011;52002;49.760;6.512;2024-03-23T08:43:23;15.10;;;4.20;;
65393;SDS011;52002;49.760;6.512;2024-03-23T08:45:48;12.20;;;3.50;;
65393;SDS011;52002;49.760;6.512;2024-03-23T08:48:14;10.50;;;3.30;;
65393;SDS011;52002;49.760;6.512;2024-03-23T08:50:39;8.00;;;3.20;;
65393;SDS011;52002;49.760;6.512;2024-03-23T08:53:04;13.50;;;3.50;;
65393;SDS011;52002;49.760;6.512;2024-03-23T08:55:30;13.60;;;3.90;;
65393;SDS011;52002;49.760;6.512;2024-03-23T08:57:55;14.00;;;3.70;;
65393;SDS011;52002;49.760;6.512;2024-03-23T09:00:21;11.30;;;3.30;;
65393;SDS011;52002;49.760;6.512;2024-03-23T09:02:47;7.80;;;2.60;;
65393;SDS011;52002;49.760;6.512;2024-03-23T09:05:13;14.50;;;3.20;;
65393;SDS011;52002;49.760;6.512;2024-03-23T09:07:38;14.20;;;3.20;;
65393;SDS011;52002;49.760;6.512;2024-03-23T09:10:04;7.00;;;2.80;;
65393;SDS011;52002;49.760;6.512;2024-03-23T09:12:30;11.60;;;2.90;;
65393;SDS011;52002;49.760;6.512;2024-03-23T09:14:55;11.00;;;2.50;;
65393;SDS011;52002;49.760;6.512;2024-03-23T09:17:20;10.40;;;2.60;;
65393;SDS011;52002;49.760;6.512;2024-03-23T09:19:46;7.10;;;2.70;;
65393;SDS011;52002;49.760;6.512;2024-03-23T09:22:11;8.40;;;2.70;;
65393;SDS011;52002;49.760;6.512;2024-03-23T09:24:38;10.00;;;2.50;;
65393;SDS011;52002;49.760;6.512;2024-03-23T09:27:04;9.40;;;2.40;;
65393;SDS011;52002;49.760;6.512;2024-03-23T09:29:29;11.00;;;2.80;;
65393;SDS011;52002;49.760;6.512;2024-03-23T09:31:55;9.40;;;2.50;;
65393;SDS011;52002;49.760;6.512;2024-03-23T09:34:20;6.60;;;2.30;;
65393;SDS011;52002;49.760;6.512;2024-03-23T09:36:46;8.50;;;2.50;;
65393;SDS011;52002;49.760;6.512;2024-03-23T09:39:12;8.40;;;2.20;;
65393;SDS011;52002;49.760;6.512;2024-03-23T09:41:39;7.40;;;2.60;;
65393;SDS011;52002;49.760;6.512;2024-03-23T09:44:05;13.60;;;2.90;;
65393;SDS011;52002;49.760;6.512;2024-03-23T09:46:30;11.50;;;2.70;;
65393;SDS011;52002;49.760;6.512;2024-03-23T09:48:59;8.60;;;2.20;;
65393;SDS011;52002;49.760;6.512;2024-03-23T09:51:25;8.50;;;3.70;;
65393;SDS011;52002;49.760;6.512;2024-03-23T09:53:51;10.00;;;2.80;;
65393;SDS011;52002;49.760;6.512;2024-03-23T09:56:17;13.70;;;3.40;;
65393;SDS011;52002;49.760;6.512;2024-03-23T09:58:43;10.50;;;2.70;;
65393;SDS011;52002;49.760;6.512;2024-03-23T10:01:08;9.70;;;3.20;;
65393;SDS011;52002;49.760;6.512;2024-03-23T10:03:44;13.70;;;2.70;;
65393;SDS011;52002;49.760;6.512;2024-03-23T10:06:10;10.90;;;2.80;;
65393;SDS011;52002;49.760;6.512;2024-03-23T10:08:36;6.20;;;2.00;;
65393;SDS011;52002;49.760;6.512;2024-03-23T10:11:14;9.90;;;2.50;;
65393;SDS011;52002;49.760;6.512;2024-03-23T10:13:44;6.30;;;2.40;;
65393;SDS011;52002;49.760;6.512;2024-03-23T10:16:12;10.10;;;2.30;;
65393;SDS011;52002;49.760;6.512;2024-03-23T10:18:45;7.30;;;2.00;;
65393;SDS011;52002;49.760;6.512;2024-03-23T10:21:10;8.20;;;2.10;;
65393;SDS011;52002;49.760;6.512;2024-03-23T10:23:37;11.80;;;2.20;;
65393;SDS011;52002;49.760;6.512;2024-03-23T10:26:19;17.60;;;2.70;;
65393;SDS011;52002;49.760;6.512;2024-03-23T10:31:32;12.00;;;1.90;;
65393;SDS011;52002;49.760;6.512;2024-03-23T10:34:02;7.20;;;1.90;;
65393;SDS011;52002;49.760;6.512;2024-03-23T10:36:28;10.20;;;1.90;;
65393;SDS011;52002;49.760;6.512;2024-03-23T10:38:55;5.90;;;1.80;;
65393;SDS011;52002;49.760;6.512;2024-03-23T10:41:24;5.60;;;1.50;;
65393;SDS011;52002;49.760;6.512;2024-03-23T10:43:52;7.90;;;1.20;;
65393;SDS011;52002;49.760;6.512;2024-03-23T10:46:21;7.50;;;1.10;;
65393;SDS011;52002;49.760;6.512;2024-03-23T10:48:46;6.90;;;0.80;;
65393;SDS011;52002;49.760;6.512;2024-03-23T10:51:12;2.80;;;1.00;;
65393;SDS011;52002;49.760;6.512;2024-03-23T10:53:39;6.00;;;0.60;;
65393;SDS011;52002;49.760;6.512;2024-03-23T10:56:05;3.70;;;0.40;;
65393;SDS011;52002;49.760;6.512;2024-03-23T10:58:34;1.20;;;0.40;;
65393;SDS011;52002;49.760;6.512;2024-03-23T11:01:03;0.40;;;0.20;;
65393;SDS011;52002;49.760;6.512;2024-03-23T11:03:29;2.20;;;0.50;;
65393;SDS011;52002;49.760;6.512;2024-03-23T11:05:58;0.30;;;0.20;;
65393;SDS011;52002;49.760;6.512;2024-03-23T11:08:38;1.20;;;0.30;;
65393;SDS011;52002;49.760;6.512;2024-03-23T11:13:42;0.50;;;0.30;;
65393;SDS011;52002;49.760;6.512;2024-03-23T11:16:17;1.00;;;0.40;;
65393;SDS011;52002;49.760;6.512;2024-03-23T11:18:48;1.40;;;0.40;;
65393;SDS011;52002;49.760;6.512;2024-03-23T11:24:21;0.90;;;0.40;;
65393;SDS011;52002;49.760;6.512;2024-03-23T11:26:47;2.00;;;0.60;;
65393;SDS011;52002;49.760;6.512;2024-03-23T11:29:14;2.10;;;0.70;;
65393;SDS011;52002;49.760;6.512;2024-03-23T11:31:47;3.00;;;0.40;;
65393;SDS011;52002;49.760;6.512;2024-03-23T11:34:15;3.00;;;0.70;;
65393;SDS011;52002;49.760;6.512;2024-03-23T11:36:41;4.30;;;0.90;;
65393;SDS011;52002;49.760;6.512;2024-03-23T11:39:17;5.80;;;1.00;;
65393;SDS011;52002;49.760;6.512;2024-03-23T11:41:51;1.90;;;0.50;;
65393;SDS011;52002;49.760;6.512;2024-03-23T11:44:27;2.10;;;0.60;;
65393;SDS011;52002;49.760;6.512;2024-03-23T11:46:52;2.30;;;0.60;;
65393;SDS011;52002;49.760;6.512;2024-03-23T11:51:51;4.10;;;0.60;;
65393;SDS011;52002;49.760;6.512;2024-03-23T11:54:22;3.50;;;0.90;;
65393;SDS011;52002;49.760;6.512;2024-03-23T11:59:34;3.70;;;0.50;;
65393;SDS011;52002;49.760;6.512;2024-03-23T12:02:00;4.70;;;0.90;;
65393;SDS011;52002;49.760;6.512;2024-03-23T12:04:31;3.60;;;0.90;;
65393;SDS011;52002;49.760;6.512;2024-03-23T12:10:04;5.00;;;1.20;;
65393;SDS011;52002;49.760;6.512;2024-03-23T12:12:31;3.40;;;0.90;;
65393;SDS011;52002;49.760;6.512;2024-03-23T12:15:06;6.80;;;1.20;;
65393;SDS011;52002;49.760;6.512;2024-03-23T12:17:33;3.00;;;0.70;;
65393;SDS011;52002;49.760;6.512;2024-03-23T12:20:00;1.10;;;0.60;;
65393;SDS011;52002;49.760;6.512;2024-03-23T12:22:26;2.60;;;0.90;;
65393;SDS011;52002;49.760;6.512;2024-03-23T12:24:52;3.20;;;0.70;;
65393;SDS011;52002;49.760;6.512;2024-03-23T12:27:17;4.60;;;1.00;;
65393;SDS011;52002;49.760;6.512;2024-03-23T12:29:43;0.70;;;0.30;;
65393;SDS011;52002;49.760;6.512;2024-03-23T12:32:13;0.30;;;0.30;;
65393;SDS011;52002;49.760;6.512;2024-03-23T12:34:39;1.30;;;0.40;;
65393;SDS011;52002;49.760;6.512;2024-03-23T12:37:05;1.30;;;0.70;;
65393;SDS011;52002;49.760;6.512;2024-03-23T12:39:34;1.30;;;0.40;;
65393;SDS011;52002;49.760;6.512;2024-03-23T12:42:00;2.70;;;0.60;;
65393;SDS011;52002;49.760;6.512;2024-03-23T12:44:28;3.10;;;0.70;;
65393;SDS011;52002;49.760;6.512;2024-03-23T12:46:54;2.20;;;0.90;;
65393;SDS011;52002;49.760;6.512;2024-03-23T12:49:19;2.30;;;0.40;;
65393;SDS011;52002;49.760;6.512;2024-03-23T12:51:53;3.70;;;1.30;;
65393;SDS011;52002;49.760;6.512;2024-03-23T12:54:24;2.20;;;0.70;;
65393;SDS011;52002;49.760;6.512;2024-03-23T12:56:50;2.80;;;0.80;;
65393;SDS011;52002;49.760;6.512;2024-03-23T12:59:15;3.20;;;0.80;;
65393;SDS011;52002;49.760;6.512;2024-03-23T13:01:41;2.60;;;0.80;;
65393;SDS011;52002;49.760;6.512;2024-03-23T13:04:08;1.90;;;0.50;;
65393;SDS011;52002;49.760;6.512;2024-03-23T13:06:34;3.60;;;0.80;;
65393;SDS011;52002;49.760;6.512;2024-03-23T13:09:02;3.00;;;0.80;;
65393;SDS011;52002;49.760;6.512;2024-03-23T13:11:28;2.40;;;0.50;;
65393;SDS011;52002;49.760;6.512;2024-03-23T13:13:54;1.30;;;0.40;;
65393;SDS011;52002;49.760;6.512;2024-03-23T13:16:20;2.00;;;0.40;;
65393;SDS011;52002;49.760;6.512;2024-03-23T13:18:45;2.70;;;0.60;;
65393;SDS011;52002;49.760;6.512;2024-03-23T13:21:11;1.90;;;0.50;;
65393;SDS011;52002;49.760;6.512;2024-03-23T13:23:36;2.70;;;0.50;;
65393;SDS011;52002;49.760;6.512;2024-03-23T13:26:03;3.30;;;0.70;;
65393;SDS011;52002;49.760;6.512;2024-03-23T13:28:30;2.20;;;0.70;;
65393;SDS011;52002;49.760;6.512;2024-03-23T13:30:56;3.80;;;0.70;;
65393;SDS011;52002;49.760;6.512;2024-03-23T13:33:29;2.00;;;0.30;;
65393;SDS011;52002;49.760;6.512;2024-03-23T13:35:57;2.10;;;0.60;;
65393;SDS011;52002;49.760;6.512;2024-03-23T13:38:23;3.80;;;0.40;;
65393;SDS011;52002;49.760;6.512;2024-03-23T13:40:52;0.80;;;0.40;;
65393;SDS011;52002;49.760;6.512;2024-03-23T13:43:19;0.60;;;0.40;;
65393;SDS011;52002;49.760;6.512;2024-03-23T13:45:48;2.20;;;0.40;;
65393;SDS011;52002;49.760;6.512;2024-03-23T13:48:15;1.40;;;0.50;;
65393;SDS011;52002;49.760;6.512;2024-03-23T13:50:43;1.60;;;0.40;;
65393;SDS011;52002;49.760;6.512;2024-03-23T13:53:08;0.90;;;0.60;;
65393;SDS011;52002;49.760;6.512;2024-03-23T13:55:34;2.10;;;0.40;;
65393;SDS011;52002;49.760;6.512;2024-03-23T13:58:00;1.60;;;0.60;;
65393;SDS011;52002;49.760;6.512;2024-03-23T14:00:25;3.10;;;0.70;;
65393;SDS011;52002;49.760;6.512;2024-03-23T14:02:50;2.20;;;0.40;;
65393;SDS011;52002;49.760;6.512;2024-03-23T14:05:16;3.20;;;0.70;;
65393;SDS011;52002;49.760;6.512;2024-03-23T14:07:41;1.60;;;0.70;;
65393;SDS011;52002;49.760;6.512;2024-03-23T14:10:07;0.80;;;0.30;;
65393;SDS011;52002;49.760;6.512;2024-03-23T14:12:35;1.30;;;0.40;;
65393;SDS011;52002;49.760;6.512;2024-03-23T14:15:04;2.20;;;0.70;;
65393;SDS011;52002;49.760;6.512;2024-03-23T14:17:30;0.90;;;0.50;;
65393;SDS011;52002;49.760;6.512;2024-03-23T14:19:56;2.40;;;0.50;;
65393;SDS011;52002;49.760;6.512;2024-03-23T14:22:25;1.40;;;0.30;;
65393;SDS011;52002;49.760;6.512;2024-03-23T14:24:52;0.30;;;0.20;;
65393;SDS011;52002;49.760;6.512;2024-03-23T14:27:17;1.90;;;0.50;;
65393;SDS011;52002;49.760;6.512;2024-03-23T14:29:45;1.40;;;0.50;;
65393;SDS011;52002;49.760;6.512;2024-03-23T14:32:11;2.00;;;0.80;;
65393;SDS011;52002;49.760;6.512;2024-03-23T14:34:37;5.70;;;0.90;;
65393;SDS011;52002;49.760;6.512;2024-03-23T14:37:02;2.90;;;0.90;;
65393;SDS011;52002;49.760;6.512;2024-03-23T14:39:28;1.20;;;0.70;;
65393;SDS011;52002;49.760;6.512;2024-03-23T14:41:55;4.90;;;0.70;;
65393;SDS011;52002;49.760;6.512;2024-03-23T14:44:21;2.40;;;0.50;;
65393;SDS011;52002;49.760;6.512;2024-03-23T14:46:47;0.80;;;0.50;;
65393;SDS011;52002;49.760;6.512;2024-03-23T14:49:16;0.30;;;0.30;;
65393;SDS011;52002;49.760;6.512;2024-03-23T14:51:41;1.80;;;0.60;;
65393;SDS011;52002;49.760;6.512;2024-03-23T14:54:07;1.70;;;0.50;;
65393;SDS011;52002;49.760;6.512;2024-03-23T14:56:32;4.40;;;0.60;;
65393;SDS011;52002;49.760;6.512;2024-03-23T14:59:00;1.60;;;0.40;;
65393;SDS011;52002;49.760;6.512;2024-03-23T15:01:25;3.40;;;0.30;;
65393;SDS011;52002;49.760;6.512;2024-03-23T15:03:51;0.70;;;0.30;;
65393;SDS011;52002;49.760;6.512;2024-03-23T15:06:18;2.00;;;0.50;;
65393;SDS011;52002;49.760;6.512;2024-03-23T15:08:44;7.10;;;0.60;;
65393;SDS011;52002;49.760;6.512;2024-03-23T15:11:10;1.90;;;0.50;;
65393;SDS011;52002;49.760;6.512;2024-03-23T15:13:36;3.00;;;0.70;;
65393;SDS011;52002;49.760;6.512;2024-03-23T15:16:02;2.10;;;0.70;;
65393;SDS011;52002;49.760;6.512;2024-03-23T15:18:29;2.30;;;0.80;;
65393;SDS011;52002;49.760;6.512;2024-03-23T15:20:56;1.70;;;0.30;;
65393;SDS011;52002;49.760;6.512;2024-03-23T15:23:23;2.70;;;1.00;;
65393;SDS011;52002;49.760;6.512;2024-03-23T15:25:55;0.70;;;0.30;;
65393;SDS011;52002;49.760;6.512;2024-03-23T15:28:22;2.10;;;0.50;;
65393;SDS011;52002;49.760;6.512;2024-03-23T15:30:48;0.80;;;0.20;;
65393;SDS011;52002;49.760;6.512;2024-03-23T15:33:13;4.20;;;0.40;;
65393;SDS011;52002;49.760;6.512;2024-03-23T15:35:39;1.90;;;0.70;;
65393;SDS011;52002;49.760;6.512;2024-03-23T15:38:04;0.80;;;0.50;;
65393;SDS011;52002;49.760;6.512;2024-03-23T15:40:30;1.80;;;0.50;;
65393;SDS011;52002;49.760;6.512;2024-03-23T15:42:55;1.30;;;0.70;;
65393;SDS011;52002;49.760;6.512;2024-03-23T15:45:20;1.70;;;0.60;;
65393;SDS011;52002;49.760;6.512;2024-03-23T15:47:46;1.40;;;0.60;;
65393;SDS011;52002;49.760;6.512;2024-03-23T15:50:11;4.10;;;0.50;;